Time;durP1;ratioP1;P1;durP2;ratioP2;P2;SDS_P1;SDS_P2;PMS_P1;PMS_P2;Temp;Humidity;BMP_temperature;BMP_pressure;BME280_temperature;BME280_humidity;BME280_pressure;Samples;Min_cycle;Max_cycle;Signal;HPM_P1;HPM_P2
2023/05/19 00:01:52;;;;;;;4.28;3.33;;;;;;;11.12;98.12;94842.56;5006877;28;20221;-81
2023/05/19 00:04:21;;;;;;;5.93;4.05;;;;;;;11.18;97.58;94835.84;5002108;28;20197;-81
2023/05/19 00:06:50;;;;;;;8.32;3.88;;;;;;;11.15;97.99;94831.84;5013334;28;20208;-80
2023/05/19 00:09:18;;;;;;;7.22;4.35;;;;;;;11.16;97.76;94848.91;5004186;28;20623;-81
2023/05/19 00:11:45;;;;;;;6.50;3.75;;;;;;;11.17;97.86;94835.03;5008595;28;20591;-82
2023/05/19 00:14:12;;;;;;;5.57;3.80;;;;;;;11.16;98.15;94838.06;5008060;28;20235;-79
2023/05/19 00:16:41;;;;;;;5.40;3.47;;;;;;;11.22;97.25;94837.56;5005242;28;20197;-79
2023/05/19 00:19:08;;;;;;;6.75;2.85;;;;;;;11.15;97.36;94837.28;5000891;28;20307;-81
2023/05/19 00:21:38;;;;;;;4.47;3.40;;;;;;;11.16;97.43;94822.59;5009905;28;20234;-80
2023/05/19 00:24:05;;;;;;;7.38;4.10;;;;;;;11.13;97.26;94822.44;5005679;28;20265;-81
2023/05/19 00:26:32;;;;;;;7.60;3.97;;;;;;;11.15;97.38;94823.72;5012508;28;20221;-80
2023/05/19 00:28:58;;;;;;;6.03;3.78;;;;;;;11.14;96.97;94824.84;5001757;28;20665;-80
2023/05/19 00:31:25;;;;;;;5.68;3.40;;;;;;;11.16;96.15;94828.03;5010764;28;20200;-80
2023/05/19 00:33:52;;;;;;;6.47;3.60;;;;;;;11.19;96.95;94826.59;5005422;28;20205;-79
2023/05/19 00:36:18;;;;;;;6.55;4.18;;;;;;;11.17;96.82;94820.69;5012224;28;20603;-79
2023/05/19 00:38:47;;;;;;;5.10;3.70;;;;;;;11.20;96.46;94818.13;5010113;28;20279;-80
2023/05/19 00:41:13;;;;;;;6.55;4.18;;;;;;;11.19;96.37;94816.53;5002861;28;20723;-80
2023/05/19 00:43:40;;;;;;;4.90;3.45;;;;;;;11.17;96.48;94824.19;5009143;28;20263;-80
2023/05/19 00:46:07;;;;;;;6.90;3.97;;;;;;;11.17;96.41;94816.06;5009457;28;20215;-79
2023/05/19 00:48:34;;;;;;;5.97;3.92;;;;;;;11.13;96.49;94812.41;5000886;28;20859;-79
2023/05/19 00:51:03;;;;;;;6.32;3.75;;;;;;;11.09;96.21;94811.47;4998365;28;20201;-81
2023/05/19 00:53:30;;;;;;;5.88;3.85;;;;;;;11.09;95.82;94814.16;5007656;28;20231;-79
2023/05/19 00:56:00;;;;;;;5.47;3.65;;;;;;;11.06;95.95;94811.34;5007731;28;20244;-78
2023/05/19 00:58:28;;;;;;;4.40;3.42;;;;;;;11.01;96.58;94806.88;5005150;28;20233;-78
2023/05/19 01:01:01;;;;;;;6.60;3.88;;;;;;;11.01;96.45;94815.81;4995813;28;20607;-78
2023/05/19 01:03:29;;;;;;;3.22;2.22;;;;;;;11.01;95.59;94809.59;5007196;28;20934;-78
2023/05/19 01:05:56;;;;;;;4.80;2.92;;;;;;;10.94;95.77;94801.16;4999620;28;20201;-79
2023/05/19 01:08:23;;;;;;;8.35;3.92;;;;;;;10.92;96.21;94811.56;5006606;28;20205;-79
2023/05/19 01:10:50;;;;;;;3.70;2.60;;;;;;;10.90;96.05;94813.78;5012285;28;20206;-81
2023/05/19 01:13:18;;;;;;;5.35;3.28;;;;;;;10.78;96.18;94795.50;5009273;28;20567;-79
2023/05/19 01:15:59;;;;;;;5.22;3.53;;;;;;;10.85;96.72;94811.25;5008250;28;20248;-78
2023/05/19 01:18:37;;;;;;;5.97;3.53;;;;;;;10.81;96.83;94815.72;4994466;28;20217;-79
2023/05/19 01:21:22;;;;;;;5.70;3.35;;;;;;;10.73;97.52;94820.06;5004196;28;20275;-80
2023/05/19 01:24:01;;;;;;;7.30;4.63;;;;;;;10.65;98.28;94824.38;5009282;28;20232;-79
2023/05/19 01:27:02;;;;;;;4.82;3.63;;;;;;;10.59;98.64;94820.25;5007949;28;20217;-80
2023/05/19 01:29:42;;;;;;;5.55;3.47;;;;;;;10.56;99.03;94823.59;5011152;28;20277;-78
2023/05/19 01:32:11;;;;;;;5.90;3.25;;;;;;;10.50;99.57;94819.47;4997215;28;20190;-80
2023/05/19 01:34:43;;;;;;;8.13;3.78;;;;;;;10.47;99.93;94817.41;5008133;28;20205;-79
2023/05/19 01:37:10;;;;;;;6.68;4.07;;;;;;;10.44;100.00;94820.75;5001117;28;20292;-78
2023/05/19 01:39:38;;;;;;;5.60;3.55;;;;;;;10.43;100.00;94811.03;4996447;28;20232;-79
2023/05/19 01:42:06;;;;;;;4.65;3.42;;;;;;;10.38;100.00;94808.53;5010771;28;20722;-81
2023/05/19 01:44:34;;;;;;;5.05;2.90;;;;;;;10.33;100.00;94814.88;5008554;28;20710;-81
2023/05/19 01:47:01;;;;;;;4.07;2.63;;;;;;;10.30;100.00;94812.03;5010418;28;20262;-79
2023/05/19 01:49:29;;;;;;;6.80;3.97;;;;;;;10.32;100.00;94820.63;5011593;28;20205;-79
2023/05/19 01:51:56;;;;;;;5.97;3.83;;;;;;;10.30;100.00;94817.44;5008866;28;20208;-79
2023/05/19 01:54:23;;;;;;;7.28;4.20;;;;;;;10.30;100.00;94825.56;5005479;28;20831;-80
2023/05/19 01:56:57;;;;;;;5.55;3.35;;;;;;;10.33;100.00;94822.22;5004332;28;20727;-80
2023/05/19 01:59:36;;;;;;;4.07;2.80;;;;;;;10.28;100.00;94830.50;5002189;28;20303;-79
2023/05/19 02:02:09;;;;;;;7.05;4.25;;;;;;;10.35;100.00;94830.81;5009989;28;20209;-79
2023/05/19 02:04:45;;;;;;;10.05;4.43;;;;;;;10.38;100.00;94822.06;5011095;28;20714;-85
2023/05/19 02:07:17;;;;;;;5.75;3.55;;;;;;;10.35;100.00;94816.47;5010713;28;20274;-78
2023/05/19 02:09:52;;;;;;;6.53;3.97;;;;;;;10.33;100.00;94833.03;5006868;28;20194;-79
2023/05/19 02:12:24;;;;;;;10.13;4.50;;;;;;;10.31;100.00;94824.44;4999260;28;20205;-79
2023/05/19 02:14:58;;;;;;;6.88;4.72;;;;;;;10.21;100.00;94824.78;5010804;28;20193;-81
2023/05/19 02:17:28;;;;;;;6.18;4.10;;;;;;;10.20;100.00;94834.00;5010585;28;20200;-79
2023/05/19 02:19:57;;;;;;;7.30;3.70;;;;;;;10.15;100.00;94826.00;5007794;28;20196;-79
2023/05/19 02:22:23;;;;;;;8.02;4.43;;;;;;;10.13;100.00;94823.63;5006929;28;20610;-79
2023/05/19 02:24:50;;;;;;;8.52;4.10;;;;;;;10.20;100.00;94834.00;5000471;28;20738;-79
2023/05/19 02:27:17;;;;;;;7.47;4.80;;;;;;;10.20;100.00;94825.91;4993947;28;20229;-79
2023/05/19 02:29:44;;;;;;;8.02;4.78;;;;;;;10.16;100.00;94828.41;5007624;28;20237;-79
2023/05/19 02:32:11;;;;;;;8.23;4.88;;;;;;;10.13;100.00;94822.81;5003750;28;20640;-80
2023/05/19 02:34:38;;;;;;;11.55;6.57;;;;;;;10.12;100.00;94835.56;4997270;28;20256;-79
2023/05/19 02:37:07;;;;;;;12.02;5.47;;;;;;;10.09;100.00;94833.53;4991164;28;20256;-79
2023/05/19 02:39:34;;;;;;;6.75;4.65;;;;;;;10.04;100.00;94832.88;5008361;28;20236;-79
2023/05/19 02:42:01;;;;;;;8.75;5.28;;;;;;;10.07;100.00;94834.94;5004935;28;20213;-79
2023/05/19 02:44:28;;;;;;;6.30;3.88;;;;;;;10.10;100.00;94831.63;5001311;28;20415;-80
2023/05/19 02:46:55;;;;;;;8.75;4.60;;;;;;;10.07;100.00;94837.66;5000286;28;20201;-79
2023/05/19 02:49:21;;;;;;;5.88;3.58;;;;;;;10.12;100.00;94832.84;5000071;28;20190;-79
2023/05/19 02:51:48;;;;;;;5.40;3.33;;;;;;;10.14;100.00;94841.47;4998872;28;20211;-79
2023/05/19 02:54:16;;;;;;;6.85;4.07;;;;;;;10.17;100.00;94837.31;4999715;28;20262;-79
2023/05/19 02:56:43;;;;;;;16.85;5.72;;;;;;;10.16;100.00;94838.44;5001098;28;20200;-79
2023/05/19 02:59:09;;;;;;;12.43;5.55;;;;;;;10.21;100.00;94843.72;5000901;28;20228;-79
2023/05/19 03:01:37;;;;;;;10.00;5.55;;;;;;;10.14;100.00;94840.66;4999626;28;20205;-79
2023/05/19 03:04:04;;;;;;;7.78;4.72;;;;;;;10.18;100.00;94842.44;5004974;28;20209;-78
2023/05/19 03:06:31;;;;;;;8.85;5.13;;;;;;;10.18;100.00;94836.22;5000497;28;20251;-79
2023/05/19 03:08:58;;;;;;;7.60;5.45;;;;;;;10.15;100.00;94842.25;4999775;28;20205;-79
2023/05/19 03:11:26;;;;;;;8.75;5.65;;;;;;;10.17;100.00;94842.75;5001513;28;20283;-78
2023/05/19 03:13:53;;;;;;;10.10;4.78;;;;;;;10.27;100.00;94850.56;5001524;28;20242;-81
2023/05/19 03:16:20;;;;;;;7.32;4.57;;;;;;;10.28;100.00;94849.44;5003356;28;20757;-77
2023/05/19 03:18:47;;;;;;;8.40;5.30;;;;;;;10.35;100.00;94854.38;5001117;28;20222;-79
2023/05/19 03:21:14;;;;;;;10.82;6.47;;;;;;;10.43;100.00;94854.38;4999493;28;20213;-79
2023/05/19 03:23:40;;;;;;;9.05;4.85;;;;;;;10.67;100.00;94848.44;5000382;28;20247;-79
2023/05/19 03:26:07;;;;;;;11.13;6.85;;;;;;;10.92;100.00;94844.06;5001259;28;20213;-79
2023/05/19 03:28:35;;;;;;;11.13;5.38;;;;;;;11.16;98.95;94849.72;5000555;28;20644;-79
2023/05/19 03:31:02;;;;;;;11.13;6.32;;;;;;;11.37;97.62;94855.19;5001279;28;20303;-81
2023/05/19 03:33:29;;;;;;;9.57;5.82;;;;;;;11.52;96.45;94846.50;5009697;28;20671;-79
2023/05/19 03:35:56;;;;;;;9.05;5.13;;;;;;;11.66;95.52;94846.25;5006919;28;20572;-78
2023/05/19 03:38:23;;;;;;;13.90;6.85;;;;;;;11.46;96.52;94852.47;5005479;28;20237;-79
2023/05/19 03:40:50;;;;;;;10.65;6.53;;;;;;;11.42;96.69;94852.31;4997238;28;20205;-78
2023/05/19 03:43:17;;;;;;;11.52;6.22;;;;;;;11.54;96.24;94843.47;5013180;28;20205;-79
2023/05/19 03:45:45;;;;;;;11.35;6.97;;;;;;;11.47;96.07;94843.19;5009095;28;20732;-78
2023/05/19 03:48:14;;;;;;;8.48;5.28;;;;;;;11.33;96.34;94855.06;5004293;28;20664;-79
2023/05/19 03:50:41;;;;;;;13.38;7.07;;;;;;;11.50;96.84;94861.50;5009867;28;20293;-78
2023/05/19 03:53:08;;;;;;;12.55;6.82;;;;;;;11.67;95.42;94859.50;5013224;28;20709;-77
2023/05/19 03:55:36;;;;;;;10.10;6.35;;;;;;;11.54;95.19;94854.31;5013352;28;20267;-78
2023/05/19 03:58:02;;;;;;;10.82;6.78;;;;;;;11.50;95.79;94854.16;5005759;28;20537;-78
2023/05/19 04:00:30;;;;;;;16.10;7.18;;;;;;;11.68;95.81;94855.66;4999908;28;20208;-77
2023/05/19 04:02:58;;;;;;;12.10;7.38;;;;;;;12.68;91.64;94853.97;5013134;28;20565;-77
2023/05/19 04:05:25;;;;;;;13.25;6.50;;;;;;;13.07;88.78;94855.31;5000087;28;20227;-80
2023/05/19 04:07:52;;;;;;;7.32;4.35;;;;;;;13.65;85.55;94847.88;5002899;28;20198;-82
2023/05/19 04:10:19;;;;;;;10.85;6.65;;;;;;;13.87;84.16;94844.69;5006443;28;20209;-79
2023/05/19 04:12:46;;;;;;;13.93;9.50;;;;;;;13.61;84.99;94839.59;5003739;28;20672;-78
2023/05/19 04:15:13;;;;;;;11.73;6.95;;;;;;;13.52;84.96;94849.81;5000014;28;20244;-77
2023/05/19 04:17:40;;;;;;;9.02;6.20;;;;;;;12.97;86.99;94858.47;5013098;28;20255;-77
2023/05/19 04:20:09;;;;;;;6.88;4.25;;;;;;;12.89;87.26;94853.88;5008683;28;20823;-77
2023/05/19 04:22:36;;;;;;;12.43;7.13;;;;;;;12.87;88.46;94861.59;5004291;28;20255;-77
2023/05/19 04:25:04;;;;;;;11.75;7.15;;;;;;;13.38;87.23;94866.50;4999022;28;20595;-77
2023/05/19 04:27:30;;;;;;;10.27;6.25;;;;;;;14.46;82.01;94860.47;5001723;28;20229;-77
2023/05/19 04:29:58;;;;;;;9.65;6.57;;;;;;;14.22;81.13;94862.06;4997207;28;20638;-77
2023/05/19 04:32:24;;;;;;;12.52;8.57;;;;;;;14.23;83.04;94865.59;5012867;28;20205;-75
2023/05/19 04:34:51;;;;;;;11.55;7.88;;;;;;;13.65;82.78;94870.47;4999506;28;20255;-76
2023/05/19 04:37:20;;;;;;;11.15;5.65;;;;;;;13.56;83.88;94872.47;5000938;28;20249;-76
2023/05/19 04:39:47;;;;;;;9.73;5.93;;;;;;;14.86;81.04;94863.94;5005764;28;20770;-76
2023/05/19 04:42:17;;;;;;;11.88;6.28;;;;;;;15.69;76.71;94866.84;5004857;28;20205;-76
2023/05/19 04:44:44;;;;;;;10.75;5.95;;;;;;;17.01;72.19;94861.09;4999436;28;20315;-77
2023/05/19 04:47:12;;;;;;;6.82;4.78;;;;;;;16.04;72.89;94859.44;5012405;28;20197;-77
2023/05/19 04:49:38;;;;;;;8.93;5.95;;;;;;;16.64;71.39;94858.03;4998797;28;20197;-76
2023/05/19 04:52:09;;;;;;;7.75;5.47;;;;;;;16.38;70.75;94852.38;5011921;28;20216;-78
2023/05/19 04:54:38;;;;;;;11.48;6.85;;;;;;;16.16;72.48;94864.00;5003886;28;20197;-77
2023/05/19 04:57:06;;;;;;;10.25;8.10;;;;;;;16.34;71.97;94865.19;5005321;28;20288;-76
2023/05/19 04:59:33;;;;;;;10.10;7.30;;;;;;;16.27;72.17;94860.34;4997845;28;20264;-75
2023/05/19 05:01:59;;;;;;;14.73;7.03;;;;;;;16.21;72.61;94861.00;5007673;28;20271;-76
2023/05/19 05:04:27;;;;;;;10.00;6.45;;;;;;;15.55;74.14;94870.81;5003378;28;20664;-74
2023/05/19 05:06:53;;;;;;;11.00;7.72;;;;;;;15.29;75.34;94871.31;5007822;28;20197;-75
2023/05/19 05:09:20;;;;;;;11.05;6.47;;;;;;;16.19;72.33;94858.63;5012282;28;20216;-75
2023/05/19 05:11:50;;;;;;;11.38;5.78;;;;;;;17.46;68.53;94856.03;4998724;28;20202;-78
2023/05/19 05:14:17;;;;;;;10.10;5.65;;;;;;;19.00;64.79;94850.41;5002615;28;20292;-76
2023/05/19 05:16:45;;;;;;;9.68;7.88;;;;;;;19.57;61.46;94851.00;5004906;28;20214;-75
2023/05/19 05:19:12;;;;;;;11.93;7.22;;;;;;;20.56;58.87;94854.47;5001433;28;20687;-75
2023/05/19 05:21:40;;;;;;;11.98;7.50;;;;;;;21.01;57.10;94846.81;4998795;28;20300;-75
2023/05/19 05:24:08;;;;;;;10.60;6.93;;;;;;;20.00;58.95;94856.84;5004640;28;20208;-78
2023/05/19 05:26:35;;;;;;;10.48;7.05;;;;;;;20.71;58.31;94843.53;4998422;28;20283;-74
2023/05/19 05:29:04;;;;;;;9.05;7.30;;;;;;;22.39;53.84;94835.13;5011850;28;20213;-74
2023/05/19 05:31:31;;;;;;;9.65;7.10;;;;;;;21.55;53.48;94847.75;4999615;28;20193;-76
2023/05/19 05:33:58;;;;;;;8.85;6.40;;;;;;;19.76;57.76;94859.03;5002102;28;20657;-74
2023/05/19 05:36:25;;;;;;;9.60;7.22;;;;;;;19.42;59.84;94857.50;5005987;28;20202;-75
2023/05/19 05:38:51;;;;;;;9.55;7.03;;;;;;;19.09;60.61;94858.38;5009068;28;20638;-76
2023/05/19 05:41:18;;;;;;;9.80;7.03;;;;;;;19.76;58.18;94861.00;4998595;28;20367;-78
2023/05/19 05:43:45;;;;;;;13.43;7.20;;;;;;;20.90;56.79;94851.50;5012187;28;20213;-76
2023/05/19 05:46:13;;;;;;;9.23;7.07;;;;;;;19.99;57.88;94858.00;5006587;28;20260;-74
2023/05/19 05:48:41;;;;;;;10.38;7.28;;;;;;;19.49;59.47;94857.63;5006566;28;20204;-75
2023/05/19 05:51:09;;;;;;;10.15;7.20;;;;;;;20.31;57.63;94861.78;4998481;28;20575;-75
2023/05/19 05:53:42;;;;;;;14.25;7.18;;;;;;;21.06;56.49;94846.41;5011749;28;20205;-75
2023/05/19 05:56:10;;;;;;;11.48;6.47;;;;;;;21.20;54.48;94849.22;5007774;28;20247;-76
2023/05/19 05:58:39;;;;;;;9.30;6.85;;;;;;;20.91;55.83;94869.56;5002942;28;20193;-75
2023/05/19 06:01:09;;;;;;;8.85;6.90;;;;;;;21.83;53.67;94864.31;4998695;28;20244;-75
2023/05/19 06:03:39;;;;;;;10.80;7.18;;;;;;;22.68;51.80;94869.75;5008945;28;20292;-75
2023/05/19 06:06:06;;;;;;;9.15;6.53;;;;;;;21.92;51.90;94877.69;5000998;28;20228;-74
2023/05/19 06:08:32;;;;;;;11.90;6.43;;;;;;;23.27;49.55;94875.44;5007256;28;20208;-75
2023/05/19 06:10:59;;;;;;;9.57;6.30;;;;;;;23.11;49.09;94880.66;5004710;28;20656;-75
2023/05/19 06:13:26;;;;;;;10.57;6.32;;;;;;;23.81;47.94;94869.59;5003839;28;20236;-74
2023/05/19 06:15:52;;;;;;;11.40;6.95;;;;;;;23.64;47.48;94869.31;5000746;28;20267;-75
2023/05/19 06:18:19;;;;;;;7.65;5.90;;;;;;;23.53;47.83;94881.66;5008160;28;20678;-75
2023/05/19 06:20:47;;;;;;;9.68;6.43;;;;;;;22.93;49.66;94882.72;5001580;28;20237;-74
2023/05/19 06:23:14;;;;;;;8.65;6.38;;;;;;;24.06;48.09;94870.97;5002812;28;20812;-74
2023/05/19 06:25:41;;;;;;;9.60;6.60;;;;;;;24.51;44.97;94870.22;5004582;28;20221;-76
2023/05/19 06:28:07;;;;;;;7.68;6.03;;;;;;;23.78;46.14;94871.19;5010394;28;20205;-76
2023/05/19 06:30:35;;;;;;;8.98;6.00;;;;;;;25.56;43.51;94867.38;5010345;28;20245;-75
2023/05/19 06:33:02;;;;;;;9.30;5.78;;;;;;;24.30;44.92;94871.22;5004055;28;20206;-75
2023/05/19 06:35:29;;;;;;;9.25;5.60;;;;;;;26.62;41.63;94858.59;5001578;28;20194;-75
2023/05/19 06:37:58;;;;;;;7.43;5.90;;;;;;;26.45;40.26;94871.59;5009018;28;20284;-74
2023/05/19 06:40:25;;;;;;;9.82;6.53;;;;;;;26.50;40.75;94879.47;5002768;28;20283;-74
2023/05/19 06:42:52;;;;;;;7.75;5.47;;;;;;;27.21;39.47;94875.31;5000457;28;20263;-73
2023/05/19 06:45:20;;;;;;;8.10;4.90;;;;;;;27.08;38.23;94869.63;4999410;28;20840;-76
2023/05/19 06:47:47;;;;;;;7.55;5.50;;;;;;;26.97;39.45;94869.06;5003311;28;20201;-77
2023/05/19 06:50:14;;;;;;;7.07;5.95;;;;;;;26.60;39.45;94872.91;4999318;28;20665;-76
2023/05/19 06:52:41;;;;;;;9.50;5.95;;;;;;;27.98;38.27;94863.72;5009236;28;20889;-76
2023/05/19 06:55:09;;;;;;;7.07;5.03;;;;;;;28.19;37.73;94862.44;4997994;28;20232;-74
2023/05/19 06:57:36;;;;;;;7.50;4.88;;;;;;;28.86;36.92;94871.88;5009618;28;20692;-76
2023/05/19 07:00:05;;;;;;;12.50;5.13;;;;;;;29.60;35.60;94877.38;5004656;28;20243;-77
2023/05/19 07:02:32;;;;;;;10.95;4.57;;;;;;;30.34;33.61;94871.44;5004107;28;20951;-77
2023/05/19 07:04:58;;;;;;;7.65;5.10;;;;;;;29.47;34.01;94879.34;5006998;28;20220;-77
2023/05/19 07:07:25;;;;;;;7.60;4.97;;;;;;;29.48;34.59;94875.34;5002414;28;20750;-77
2023/05/19 07:09:52;;;;;;;5.78;4.75;;;;;;;29.39;34.11;94880.00;4997820;28;20212;-77
2023/05/19 07:12:20;;;;;;;5.90;4.57;;;;;;;26.68;37.31;94890.22;4996635;28;20256;-78
2023/05/19 07:14:47;;;;;;;16.67;5.78;;;;;;;23.42;43.74;94900.25;5004104;28;20252;-79
2023/05/19 07:17:14;;;;;;;9.25;6.30;;;;;;;21.94;47.54;94912.00;5005689;28;20813;-77
2023/05/19 07:19:41;;;;;;;7.95;4.93;;;;;;;23.46;46.01;94904.59;5009830;28;20224;-77
2023/05/19 07:22:08;;;;;;;8.10;6.03;;;;;;;21.79;48.06;94907.63;5009816;28;20608;-79
2023/05/19 07:24:34;;;;;;;7.07;5.22;;;;;;;21.31;49.78;94914.63;5009212;28;20205;-78
2023/05/19 07:27:01;;;;;;;7.85;6.03;;;;;;;21.62;49.68;94908.38;4996731;28;20664;-77
2023/05/19 07:29:30;;;;;;;9.85;5.82;;;;;;;21.71;49.34;94911.59;5003044;28;20640;-77
2023/05/19 07:31:56;;;;;;;9.18;5.82;;;;;;;22.82;48.45;94906.84;5000906;28;20209;-77
2023/05/19 07:34:23;;;;;;;7.30;5.65;;;;;;;22.43;48.25;94909.63;5006566;28;20259;-77
2023/05/19 07:36:50;;;;;;;6.70;5.80;;;;;;;22.21;49.09;94900.59;4996685;28;20209;-78
2023/05/19 07:39:18;;;;;;;10.57;6.35;;;;;;;21.83;49.47;94911.19;5008842;28;20228;-77
2023/05/19 07:41:51;;;;;;;8.57;6.22;;;;;;;22.19;49.07;94897.44;4997988;28;20212;-77
2023/05/19 07:44:18;;;;;;;12.07;6.30;;;;;;;22.63;47.76;94900.53;5013143;28;20932;-77
2023/05/19 07:46:46;;;;;;;8.07;5.95;;;;;;;22.60;47.32;94908.81;5000891;28;20205;-77
2023/05/19 07:49:12;;;;;;;8.20;6.38;;;;;;;22.90;47.19;94908.38;5002583;28;20665;-77
2023/05/19 07:51:40;;;;;;;6.75;5.65;;;;;;;23.01;46.24;94900.84;5000557;28;20683;-77
2023/05/19 07:54:07;;;;;;;6.90;5.75;;;;;;;23.52;46.08;94896.66;5001447;28;20628;-78
2023/05/19 07:56:34;;;;;;;7.65;5.95;;;;;;;24.04;43.78;94898.31;4998682;28;20641;-77
2023/05/19 07:59:01;;;;;;;11.48;6.20;;;;;;;24.22;44.99;94900.13;5002390;28;20211;-75
2023/05/19 08:01:28;;;;;;;8.70;6.28;;;;;;;24.82;42.75;94896.03;5006796;28;20633;-78
2023/05/19 08:03:56;;;;;;;7.22;5.80;;;;;;;25.35;41.57;94890.66;5004284;28;20285;-76
2023/05/19 08:06:24;;;;;;;9.63;6.63;;;;;;;24.79;42.91;94903.97;5003157;28;20201;-78
2023/05/19 08:08:50;;;;;;;8.27;6.47;;;;;;;24.02;45.46;94895.16;4994957;28;20359;-76
2023/05/19 08:11:17;;;;;;;7.95;6.55;;;;;;;22.54;49.80;94900.16;4997607;28;20256;-76
2023/05/19 08:13:46;;;;;;;11.32;7.10;;;;;;;22.20;50.06;94907.28;5007569;28;20664;-75
2023/05/19 08:16:13;;;;;;;14.82;7.38;;;;;;;22.13;49.93;94910.06;4997275;28;20264;-76
2023/05/19 08:18:39;;;;;;;11.30;7.28;;;;;;;21.78;50.82;94906.06;5008014;28;20215;-77
2023/05/19 08:21:08;;;;;;;9.45;6.78;;;;;;;21.94;51.47;94905.69;5008806;28;20228;-77
2023/05/19 08:23:36;;;;;;;17.23;7.50;;;;;;;22.53;50.32;94909.63;4997346;28;20594;-77
2023/05/19 08:26:02;;;;;;;8.68;6.78;;;;;;;22.55;49.32;94910.00;5000498;28;20655;-75
2023/05/19 08:28:29;;;;;;;15.07;7.38;;;;;;;23.45;48.28;94893.94;5006331;28;20209;-78
2023/05/19 08:30:56;;;;;;;12.43;7.50;;;;;;;23.80;46.05;94888.19;5005195;28;20232;-78
2023/05/19 08:33:23;;;;;;;9.55;6.82;;;;;;;23.95;46.31;94888.88;5012335;28;20209;-76
2023/05/19 08:35:50;;;;;;;11.05;7.90;;;;;;;24.35;45.43;94884.63;5012399;28;20942;-78
2023/05/19 08:38:18;;;;;;;10.43;7.50;;;;;;;23.57;45.93;94896.25;5012291;28;20253;-78
2023/05/19 08:40:47;;;;;;;10.82;7.85;;;;;;;22.84;46.61;94887.88;5011894;28;20233;-77
2023/05/19 08:43:14;;;;;;;12.70;8.20;;;;;;;23.66;46.12;94888.28;4999824;28;20242;-78
2023/05/19 08:45:43;;;;;;;11.70;7.88;;;;;;;23.44;45.83;94886.81;4999119;28;20209;-77
2023/05/19 08:48:10;;;;;;;11.15;8.23;;;;;;;22.87;47.32;94876.03;4992463;28;20257;-78
2023/05/19 08:50:42;;;;;;;13.35;10.18;;;;;;;22.78;47.24;94895.00;4994367;28;20212;-78
2023/05/19 08:53:14;;;;;;;12.60;8.07;;;;;;;22.70;47.66;94889.44;5012235;28;20564;-76
2023/05/19 08:55:52;;;;;;;11.95;8.45;;;;;;;21.83;50.47;94891.88;4998756;28;20618;-76
2023/05/19 08:58:20;;;;;;;15.38;7.80;;;;;;;21.50;51.02;94878.44;5004613;28;20610;-73
2023/05/19 09:00:48;;;;;;;17.45;9.30;;;;;;;21.28;53.09;94889.44;4998848;28;20264;-75
2023/05/19 09:03:17;;;;;;;14.25;8.82;;;;;;;20.89;52.79;94907.75;5011484;28;20201;-73
2023/05/19 09:05:44;;;;;;;13.80;9.15;;;;;;;20.38;55.92;94903.13;5005143;28;20575;-73
2023/05/19 09:08:11;;;;;;;15.55;8.68;;;;;;;20.49;54.22;94904.00;5004459;28;20232;-75
2023/05/19 09:10:38;;;;;;;10.30;8.45;;;;;;;20.91;54.05;94886.88;4998036;28;20230;-75
2023/05/19 09:13:06;;;;;;;14.43;8.80;;;;;;;20.71;54.35;94895.84;5011995;28;20201;-77
2023/05/19 09:15:35;;;;;;;11.88;8.45;;;;;;;20.68;53.15;94888.34;4998750;28;20213;-75
2023/05/19 09:18:09;;;;;;;13.30;9.35;;;;;;;21.30;53.69;94868.97;5011471;28;20201;-76
2023/05/19 09:20:40;;;;;;;11.18;8.45;;;;;;;21.80;53.54;94878.88;5003155;28;20232;-76
2023/05/19 09:23:07;;;;;;;14.00;8.73;;;;;;;21.84;51.93;94865.88;5005139;28;20266;-76
2023/05/19 09:25:35;;;;;;;13.18;8.80;;;;;;;21.68;50.99;94867.44;5000630;28;20249;-76
2023/05/19 09:28:02;;;;;;;13.55;8.90;;;;;;;21.30;50.58;94874.47;4998565;28;20209;-76
2023/05/19 09:30:30;;;;;;;12.98;9.15;;;;;;;20.54;53.13;94887.09;5001301;28;20241;-77
2023/05/19 09:32:57;;;;;;;13.98;9.05;;;;;;;20.86;52.42;94872.72;5008670;28;20229;-77
2023/05/19 09:35:24;;;;;;;13.43;9.23;;;;;;;20.91;52.65;94869.56;5001579;28;20212;-75
2023/05/19 09:37:51;;;;;;;12.60;8.95;;;;;;;21.19;50.83;94872.47;4997836;28;20608;-76
2023/05/19 09:40:17;;;;;;;17.00;9.32;;;;;;;21.94;50.67;94869.81;5001068;28;20233;-78
2023/05/19 09:42:44;;;;;;;13.80;9.65;;;;;;;21.96;49.75;94873.75;5004885;28;20268;-77
2023/05/19 09:45:11;;;;;;;14.82;9.68;;;;;;;21.61;50.61;94870.97;5001955;28;20219;-77
2023/05/19 09:47:41;;;;;;;12.60;8.77;;;;;;;22.01;50.82;94872.59;4997929;28;20295;-77
2023/05/19 09:50:09;;;;;;;13.93;9.07;;;;;;;22.04;49.98;94862.75;5000290;28;20205;-77
2023/05/19 09:52:37;;;;;;;16.13;9.25;;;;;;;22.45;49.71;94861.13;5009432;28;20205;-77
2023/05/19 09:55:05;;;;;;;12.00;9.45;;;;;;;21.62;49.02;94872.53;4999265;28;20669;-76
2023/05/19 09:57:37;;;;;;;11.68;8.60;;;;;;;21.66;50.57;94856.81;5013796;28;20235;-77
2023/05/19 10:00:17;;;;;;;15.55;9.35;;;;;;;22.43;49.42;94857.97;4998499;28;20209;-76
2023/05/19 10:02:46;;;;;;;13.48;9.45;;;;;;;22.59;47.55;94855.56;4999506;28;20304;-77
2023/05/19 10:05:16;;;;;;;13.38;8.38;;;;;;;22.98;47.23;94854.66;5011100;28;20204;-78
2023/05/19 10:07:44;;;;;;;14.10;8.73;;;;;;;21.78;47.61;94859.16;5001885;28;20289;-75
2023/05/19 10:10:13;;;;;;;14.20;8.82;;;;;;;21.74;49.99;94854.81;5006708;28;20278;-77
2023/05/19 10:12:40;;;;;;;14.27;9.35;;;;;;;21.72;48.36;94852.50;5000974;28;20206;-77
2023/05/19 10:15:10;;;;;;;10.18;7.95;;;;;;;21.91;48.80;94843.00;5003426;28;20673;-77
2023/05/19 10:17:38;;;;;;;11.25;8.88;;;;;;;22.20;47.65;94843.81;5001596;28;20308;-76
2023/05/19 10:20:09;;;;;;;12.98;8.25;;;;;;;21.92;47.10;94839.88;4992997;28;20279;-76
2023/05/19 10:22:36;;;;;;;16.08;8.32;;;;;;;21.60;48.20;94852.84;5002526;28;20280;-77
2023/05/19 10:25:04;;;;;;;13.48;8.55;;;;;;;21.01;50.02;94846.03;4997361;28;20286;-78
2023/05/19 10:27:32;;;;;;;13.00;9.65;;;;;;;20.95;50.88;94848.34;5010063;28;20268;-76
2023/05/19 10:30:04;;;;;;;13.13;8.30;;;;;;;21.23;50.68;94842.94;4996450;28;20237;-78
2023/05/19 10:32:33;;;;;;;15.23;9.35;;;;;;;22.02;48.32;94832.00;5010534;28;20260;-77
2023/05/19 10:35:21;;;;;;;14.18;8.25;;;;;;;22.33;47.98;94831.16;4997576;28;20698;-75
2023/05/19 10:37:57;;;;;;;11.65;9.10;;;;;;;22.00;48.50;94826.91;4997489;28;20193;-78
2023/05/19 10:40:28;;;;;;;12.38;8.88;;;;;;;21.57;48.24;94828.84;4998908;28;20202;-77
2023/05/19 10:43:13;;;;;;;13.05;8.85;;;;;;;22.07;48.33;94829.63;5004153;28;20204;-77
2023/05/19 10:45:47;;;;;;;12.90;8.25;;;;;;;23.03;46.49;94823.84;5005032;28;20668;-77
2023/05/19 10:48:15;;;;;;;11.50;8.15;;;;;;;23.05;44.56;94815.94;5001456;28;20193;-77
2023/05/19 10:50:45;;;;;;;10.68;7.13;;;;;;;22.67;43.14;94821.22;5003801;28;20791;-77
2023/05/19 10:53:18;;;;;;;9.90;7.97;;;;;;;22.33;45.38;94831.16;5000174;28;20203;-77
2023/05/19 10:55:46;;;;;;;11.05;8.75;;;;;;;21.97;46.31;94822.13;4997193;28;20684;-76
2023/05/19 10:58:13;;;;;;;13.60;8.50;;;;;;;22.09;nan;94818.22;5002353;28;20201;-77
2023/05/19 11:00:40;;;;;;;11.05;8.38;;;;;;;22.67;46.33;94818.47;5005553;28;20288;-78
2023/05/19 11:03:14;;;;;;;14.13;9.05;;;;;;;23.01;45.34;94812.41;5001851;28;20627;-77
2023/05/19 11:05:44;;;;;;;12.07;9.02;;;;;;;23.39;45.61;94814.16;5004364;28;20205;-78
2023/05/19 11:08:12;;;;;;;12.73;8.88;;;;;;;24.30;43.36;94813.88;5003283;28;20260;-76
2023/05/19 11:10:39;;;;;;;13.68;8.85;;;;;;;25.10;41.30;94801.47;4996750;28;20276;-76
2023/05/19 11:13:06;;;;;;;12.77;9.18;;;;;;;24.89;42.21;94805.25;4996298;28;20244;-78
2023/05/19 11:15:35;;;;;;;13.80;8.93;;;;;;;24.34;43.18;94805.50;5002591;28;20202;-76
2023/05/19 11:18:02;;;;;;;15.25;7.90;;;;;;;22.93;42.17;94808.13;5003110;28;20267;-75
2023/05/19 11:20:30;;;;;;;11.77;8.18;;;;;;;22.86;42.65;94808.13;4997055;28;20216;-76
2023/05/19 11:23:08;;;;;;;11.05;8.38;;;;;;;24.15;41.31;94803.31;4996517;28;20638;-76
2023/05/19 11:25:43;;;;;;;10.57;8.23;;;;;;;24.71;40.74;94791.66;5000111;28;20233;-74
2023/05/19 11:28:12;;;;;;;10.20;7.82;;;;;;;24.70;39.68;94790.06;5006730;28;20200;-76
2023/05/19 11:30:42;;;;;;;12.43;8.23;;;;;;;25.19;40.13;94785.09;5009160;28;20232;-77
2023/05/19 11:33:09;;;;;;;11.40;7.38;;;;;;;24.71;39.83;94797.19;4996302;28;20205;-77
2023/05/19 11:35:36;;;;;;;11.93;8.25;;;;;;;23.70;41.42;94789.47;5009647;28;20217;-78